Time;durP1;ratioP1;P1;durP2;ratioP2;P2;SDS_P1;SDS_P2;PMS_P1;PMS_P2;Temp;Humidity;BMP_temperature;BMP_pressure;BME280_temperature;BME280_humidity;BME280_pressure;Samples;Min_cycle;Max_cycle;Signal;HPM_P1;HPM_P2
2023/02/08 00:00:56;;;;;;;18.90;9.15;;;-2.50;75.50;;;;;;5032912;28;20035;-60
2023/02/08 00:03:22;;;;;;;17.48;9.13;;;-2.50;75.60;;;;;;5032466;28;20037;-58
2023/02/08 00:05:48;;;;;;;16.63;8.95;;;-2.50;75.50;;;;;;5031943;28;20033;-58
2023/02/08 00:08:14;;;;;;;16.70;8.98;;;-2.50;75.50;;;;;;5034364;28;20505;-57
2023/02/08 00:10:40;;;;;;;17.45;9.05;;;-2.50;75.40;;;;;;5031398;28;20026;-59
2023/02/08 00:13:05;;;;;;;17.33;8.90;;;-2.60;75.30;;;;;;5027418;28;20433;-59
2023/02/08 00:15:31;;;;;;;18.92;9.15;;;-2.50;75.40;;;;;;5026474;28;20037;-59
2023/02/08 00:17:56;;;;;;;15.55;8.95;;;-2.60;75.30;;;;;;5030757;28;20565;-60
2023/02/08 00:20:22;;;;;;;20.92;9.82;;;-2.60;75.30;;;;;;5030078;28;20049;-58
2023/02/08 00:22:47;;;;;;;16.27;8.80;;;-2.60;75.30;;;;;;5030794;28;20785;-59
2023/02/08 00:25:13;;;;;;;16.10;8.73;;;-2.60;75.30;;;;;;5027614;28;20042;-57
2023/02/08 00:27:38;;;;;;;18.33;8.32;;;-2.60;75.30;;;;;;5027557;28;20513;-55
2023/02/08 00:30:05;;;;;;;16.88;8.93;;;-2.60;75.20;;;;;;5027279;28;20126;-59
2023/02/08 00:32:30;;;;;;;15.52;8.27;;;-2.60;75.20;;;;;;5027714;28;20040;-58
2023/02/08 00:34:56;;;;;;;15.82;8.75;;;-2.70;75.10;;;;;;5020543;28;20071;-58
2023/02/08 00:37:21;;;;;;;18.73;8.95;;;-2.70;75.20;;;;;;5030369;28;20064;-59
2023/02/08 00:39:47;;;;;;;19.70;9.02;;;-2.70;75.20;;;;;;5031774;28;20698;-58
2023/02/08 00:42:12;;;;;;;16.15;8.38;;;-2.70;75.20;;;;;;5029449;28;20044;-60
2023/02/08 00:44:38;;;;;;;15.10;8.30;;;-2.70;75.20;;;;;;5021671;28;20094;-57
2023/02/08 00:47:04;;;;;;;18.73;8.68;;;-2.70;75.20;;;;;;5026963;28;20093;-60
2023/02/08 00:49:29;;;;;;;15.55;8.05;;;-2.70;75.10;;;;;;5027660;28;20036;-59
2023/02/08 00:51:55;;;;;;;18.05;8.80;;;-2.70;75.20;;;;;;5029087;28;20307;-56
2023/02/08 00:54:21;;;;;;;14.85;8.27;;;-2.80;75.10;;;;;;5030415;28;20045;-56
2023/02/08 00:56:46;;;;;;;20.35;9.25;;;-2.70;75.10;;;;;;5026705;28;20037;-58
2023/02/08 00:59:13;;;;;;;16.67;8.60;;;-2.70;75.00;;;;;;5031532;28;20045;-58
2023/02/08 01:01:39;;;;;;;16.02;8.68;;;-2.70;74.90;;;;;;5028640;28;20041;-59
2023/02/08 01:04:05;;;;;;;17.40;8.80;;;-2.80;74.80;;;;;;5029008;28;20041;-59
2023/02/08 01:06:30;;;;;;;16.80;8.48;;;-2.80;74.80;;;;;;5026650;28;20582;-56
2023/02/08 01:08:56;;;;;;;15.20;8.35;;;-2.80;74.80;;;;;;5027792;28;20120;-60
2023/02/08 01:11:26;;;;;;;14.75;8.48;;;-2.80;74.80;;;;;;5024398;28;20449;-59
2023/02/08 01:13:54;;;;;;;14.52;8.35;;;-2.80;74.70;;;;;;5026946;28;20505;-60
2023/02/08 01:16:26;;;;;;;16.55;8.07;;;-2.90;74.60;;;;;;5025577;28;20025;-60
2023/02/08 01:18:53;;;;;;;16.40;8.50;;;-2.90;74.60;;;;;;5030119;28;20033;-56
2023/02/08 01:21:21;;;;;;;13.82;7.55;;;-3.00;74.50;;;;;;5029711;28;20033;-58
2023/02/08 01:23:47;;;;;;;14.45;7.90;;;-3.00;74.60;;;;;;5024684;28;20034;-59
2023/02/08 01:26:15;;;;;;;16.92;8.02;;;-3.10;74.50;;;;;;5023939;28;20073;-59
2023/02/08 01:28:41;;;;;;;15.82;8.52;;;-3.10;74.60;;;;;;5024460;28;20037;-61
2023/02/08 01:31:09;;;;;;;13.00;7.63;;;-3.10;74.70;;;;;;5025010;28;20504;-59
2023/02/08 01:33:34;;;;;;;14.95;8.38;;;-3.10;74.80;;;;;;5025140;28;20046;-59
2023/02/08 01:36:00;;;;;;;13.35;7.68;;;-3.20;74.80;;;;;;5026898;28;20160;-59
2023/02/08 01:38:26;;;;;;;18.45;8.32;;;-3.20;74.90;;;;;;5021782;28;20110;-58
2023/02/08 01:40:51;;;;;;;16.67;8.13;;;-3.20;74.90;;;;;;5028507;28;20767;-56
2023/02/08 01:43:25;;;;;;;17.15;8.80;;;-3.20;74.90;;;;;;5025385;28;20045;-59
2023/02/08 01:45:51;;;;;;;18.42;7.95;;;-3.20;74.90;;;;;;5028783;28;20127;-58
2023/02/08 01:48:43;;;;;;;13.02;7.72;;;-3.20;75.00;;;;;;5027155;28;20036;-59
2023/02/08 01:51:13;;;;;;;16.10;8.38;;;-3.20;74.80;;;;;;5025423;28;20034;-60
2023/02/08 01:53:41;;;;;;;14.55;7.97;;;-3.20;75.00;;;;;;5027154;28;20045;-60
2023/02/08 01:56:11;;;;;;;14.88;8.05;;;-3.30;75.00;;;;;;5026634;28;20021;-57
2023/02/08 01:58:42;;;;;;;14.88;7.93;;;-3.30;74.90;;;;;;5024930;28;20505;-57
2023/02/08 02:01:08;;;;;;;14.60;7.55;;;-3.30;74.90;;;;;;5023514;28;20478;-58
2023/02/08 02:03:34;;;;;;;18.17;9.13;;;-3.30;75.00;;;;;;5024319;28;20527;-57
2023/02/08 02:06:20;;;;;;;14.90;7.97;;;-3.30;75.00;;;;;;5027321;28;20041;-56
2023/02/08 02:08:54;;;;;;;15.38;7.57;;;-3.30;74.90;;;;;;5034809;28;20037;-56
2023/02/08 02:11:20;;;;;;;;;;;-3.40;74.90;;;;;;5033200;28;20040;-59
2023/02/08 02:13:49;;;;;;;14.43;8.27;;;-3.30;74.60;;;;;;5031875;28;20316;-56
2023/02/08 02:16:15;;;;;;;14.18;7.95;;;-3.40;75.00;;;;;;5034876;28;20168;-60
2023/02/08 02:18:41;;;;;;;15.70;8.38;;;-3.40;75.00;;;;;;5031463;28;20033;-56
2023/02/08 02:21:19;;;;;;;15.85;8.40;;;-3.40;75.00;;;;;;5033286;28;20455;-59
2023/02/08 02:24:16;;;;;;;15.88;8.57;;;-3.40;74.80;;;;;;5034018;28;20597;-58
2023/02/08 02:27:32;;;;;;;14.15;7.93;;;-3.40;75.70;;;;;;5034728;28;20349;-60
2023/02/08 02:30:16;;;;;;;15.98;8.35;;;-3.40;74.70;;;;;;5024269;28;20029;-60
2023/02/08 02:33:08;;;;;;;14.80;7.72;;;-3.40;74.70;;;;;;5035236;28;20047;-59
2023/02/08 02:35:39;;;;;;;16.42;8.60;;;-3.40;74.80;;;;;;5034360;28;20051;-58
2023/02/08 02:38:23;;;;;;;18.75;8.73;;;-3.50;74.80;;;;;;5035663;28;20124;-59
2023/02/08 02:40:49;;;;;;;16.35;8.35;;;-3.50;74.70;;;;;;5037564;28;20067;-57
2023/02/08 02:43:41;;;;;;;13.57;8.13;;;-3.50;74.80;;;;;;5034632;28;20041;-60
2023/02/08 02:46:39;;;;;;;15.60;8.50;;;-3.50;74.80;;;;;;5030002;28;20508;-59
2023/02/08 02:49:22;;;;;;;17.63;9.20;;;-3.50;74.80;;;;;;5024653;28;20143;-58
2023/02/08 02:51:57;;;;;;;16.20;8.20;;;-3.50;75.00;;;;;;5030610;28;20033;-59
2023/02/08 02:54:28;;;;;;;20.35;8.57;;;-3.60;75.00;;;;;;5032299;28;20029;-58
2023/02/08 02:57:02;;;;;;;14.68;8.77;;;-3.60;75.10;;;;;;5031062;28;20648;-59
2023/02/08 02:59:31;;;;;;;17.27;9.50;;;-3.50;75.10;;;;;;5033603;28;20320;-59
2023/02/08 03:01:56;;;;;;;16.80;8.25;;;-3.60;75.00;;;;;;5024652;28;20037;-63
2023/02/08 03:04:31;;;;;;;16.67;9.05;;;-3.60;75.20;;;;;;5025707;28;20060;-58
2023/02/08 03:07:18;;;;;;;42.28;22.75;;;-3.60;75.10;;;;;;5030581;28;20076;-59
2023/02/08 03:09:59;;;;;;;21.75;10.27;;;-3.60;75.20;;;;;;5031220;28;20025;-59
2023/02/08 03:13:23;;;;;;;19.35;9.55;;;-3.60;75.10;;;;;;5024702;28;20064;-60
2023/02/08 03:16:07;;;;;;;17.95;9.27;;;-3.60;75.10;;;;;;5023918;28;20509;-58
2023/02/08 03:18:59;;;;;;;18.00;9.32;;;-3.60;75.30;;;;;;5030142;28;20037;-58
2023/02/08 03:21:45;;;;;;;19.42;9.73;;;-3.70;75.20;;;;;;5029199;28;20391;-59
2023/02/08 03:24:23;;;;;;;17.67;9.15;;;-3.70;75.30;;;;;;5029588;28;20500;-59
2023/02/08 03:27:05;;;;;;;19.48;9.82;;;-3.70;75.30;;;;;;5028323;28;20489;-60
2023/02/08 03:29:48;;;;;;;17.00;8.65;;;-3.70;75.30;;;;;;5033282;28;20034;-59
2023/02/08 03:32:25;;;;;;;19.27;9.77;;;-3.70;75.40;;;;;;5029514;28;20038;-58
2023/02/08 03:35:06;;;;;;;18.90;9.50;;;-3.70;75.40;;;;;;5027888;28;20072;-59
2023/02/08 03:37:35;;;;;;;18.15;9.52;;;-3.70;75.40;;;;;;5031394;28;20478;-60
2023/02/08 03:40:06;;;;;;;19.05;9.85;;;-3.80;75.40;;;;;;5033162;28;20072;-59
2023/02/08 03:42:34;;;;;;;19.75;9.73;;;-3.80;75.50;;;;;;5030265;28;20160;-56
2023/02/08 03:45:22;;;;;;;19.60;10.00;;;-3.80;75.50;;;;;;5029494;28;20048;-55
2023/02/08 03:47:52;;;;;;;17.10;8.95;;;-3.80;75.40;;;;;;5029590;28;20043;-60
2023/02/08 03:50:20;;;;;;;20.20;10.43;;;-3.80;75.60;;;;;;5030197;28;20034;-55
2023/02/08 03:52:47;;;;;;;19.15;10.02;;;-3.80;75.70;;;;;;5031515;28;20032;-61
2023/02/08 03:55:27;;;;;;;20.52;10.48;;;-3.80;75.70;;;;;;5030007;28;20043;-60
2023/02/08 03:58:16;;;;;;;19.20;10.25;;;-3.80;75.70;;;;;;5027877;28;20037;-58
2023/02/08 04:00:49;;;;;;;22.35;10.27;;;-3.80;75.60;;;;;;5027325;28;20037;-59
2023/02/08 04:03:28;;;;;;;22.92;10.07;;;-3.80;75.80;;;;;;5033235;28;20041;-58
2023/02/08 04:05:54;;;;;;;22.30;10.40;;;-3.80;75.80;;;;;;5024177;28;20116;-59
2023/02/08 04:08:20;;;;;;;21.27;10.90;;;-3.90;75.70;;;;;;5032707;28;20045;-58
2023/02/08 04:10:46;;;;;;;21.90;10.95;;;-3.90;75.70;;;;;;5028077;28;20065;-57
2023/02/08 04:13:12;;;;;;;21.13;11.15;;;-3.90;75.60;;;;;;5029485;28;20521;-59
2023/02/08 04:15:38;;;;;;;20.67;10.93;;;-3.90;75.70;;;;;;5029773;28;20060;-59
2023/02/08 04:18:04;;;;;;;21.60;11.18;;;-3.90;75.90;;;;;;5022577;28;20416;-57
2023/02/08 04:20:30;;;;;;;22.55;10.98;;;-3.90;75.90;;;;;;5030840;28;20037;-58
2023/02/08 04:22:55;;;;;;;22.33;11.63;;;-3.90;75.90;;;;;;5030195;28;20523;-58
2023/02/08 04:25:21;;;;;;;21.90;11.57;;;-3.90;75.90;;;;;;5027010;28;20034;-59
2023/02/08 04:27:46;;;;;;;21.95;11.75;;;-3.90;75.90;;;;;;5019564;28;20068;-58
2023/02/08 04:30:12;;;;;;;21.98;11.93;;;-4.00;75.90;;;;;;5027577;28;20124;-59
2023/02/08 04:32:38;;;;;;;23.98;12.23;;;-4.00;75.90;;;;;;5024474;28;20086;-54
2023/02/08 04:35:04;;;;;;;21.33;11.68;;;-4.00;75.90;;;;;;5029665;28;20049;-58
2023/02/08 04:37:30;;;;;;;23.83;12.05;;;-4.00;76.00;;;;;;5024551;28;20123;-58
2023/02/08 04:39:55;;;;;;;22.75;11.77;;;-4.00;76.00;;;;;;5025851;28;20120;-58
2023/02/08 04:42:21;;;;;;;21.58;11.43;;;-4.00;76.10;;;;;;5026101;28;20119;-60
2023/02/08 04:44:46;;;;;;;23.05;11.32;;;-4.00;76.20;;;;;;5025119;28;20060;-58
2023/02/08 04:47:12;;;;;;;21.38;11.60;;;-4.00;76.10;;;;;;5023725;28;20033;-54
2023/02/08 04:49:38;;;;;;;23.48;12.30;;;-4.00;76.20;;;;;;5025528;28;20045;-58
2023/02/08 04:52:04;;;;;;;23.98;12.40;;;-4.00;76.20;;;;;;5024984;28;20094;-60
2023/02/08 04:54:29;;;;;;;23.80;12.70;;;-4.00;76.20;;;;;;5028014;28;20033;-55
2023/02/08 04:56:55;;;;;;;23.98;13.18;;;-4.00;76.20;;;;;;5021078;28;20096;-58
2023/02/08 04:59:21;;;;;;;28.77;13.38;;;-4.10;76.10;;;;;;5024534;28;20098;-58
2023/02/08 05:01:46;;;;;;;28.65;13.88;;;-4.00;76.10;;;;;;5021953;28;20033;-59
2023/02/08 05:04:12;;;;;;;25.90;13.38;;;-4.10;75.90;;;;;;5026229;28;20459;-60
2023/02/08 05:06:37;;;;;;;25.88;13.52;;;-4.10;76.00;;;;;;5022723;28;20064;-58
2023/02/08 05:09:06;;;;;;;28.38;13.93;;;-4.10;76.10;;;;;;5024299;28;20046;-57
2023/02/08 05:11:32;;;;;;;22.63;12.70;;;-4.10;76.10;;;;;;5016766;28;20447;-59
2023/02/08 05:13:57;;;;;;;27.25;13.82;;;-4.20;76.10;;;;;;5021778;28;20101;-60
2023/02/08 05:16:23;;;;;;;25.88;13.20;;;-4.20;76.20;;;;;;5021745;28;20033;-60
2023/02/08 05:18:49;;;;;;;27.77;16.40;;;-4.20;76.20;;;;;;5027016;28;20043;-59
2023/02/08 05:21:14;;;;;;;28.63;14.20;;;-4.20;76.30;;;;;;5019343;28;20045;-58
2023/02/08 05:23:40;;;;;;;32.83;15.23;;;-4.20;76.40;;;;;;5020804;28;20034;-59
2023/02/08 05:26:07;;;;;;;27.52;14.20;;;-4.20;76.40;;;;;;5021943;28;20038;-58
2023/02/08 05:28:33;;;;;;;34.85;15.50;;;-4.20;76.50;;;;;;5021150;28;20033;-57
2023/02/08 05:30:58;;;;;;;30.60;14.63;;;-4.30;76.40;;;;;;5028102;28;20548;-58
2023/02/08 05:33:24;;;;;;;29.42;14.68;;;-4.30;76.50;;;;;;5030756;28;20052;-58
2023/02/08 05:35:49;;;;;;;31.90;14.95;;;-4.40;76.60;;;;;;5028526;28;20056;-59
2023/02/08 05:38:15;;;;;;;29.83;15.20;;;-4.30;76.70;;;;;;5033741;28;20060;-59
2023/02/08 05:40:40;;;;;;;31.73;14.38;;;-4.30;76.70;;;;;;5032422;28;20409;-58
2023/02/08 05:43:06;;;;;;;32.92;15.00;;;-4.30;76.70;;;;;;5030915;28;20036;-60
2023/02/08 05:45:32;;;;;;;26.52;14.25;;;-4.30;77.60;;;;;;5034392;28;20037;-59
2023/02/08 05:47:57;;;;;;;27.90;13.82;;;-4.30;76.80;;;;;;5033558;28;20066;-59
2023/02/08 05:50:23;;;;;;;31.92;15.60;;;-4.30;76.90;;;;;;5030282;28;20095;-56
2023/02/08 05:52:48;;;;;;;31.88;15.75;;;-4.30;76.90;;;;;;5030038;28;20030;-56
2023/02/08 05:55:14;;;;;;;26.63;14.25;;;-4.30;76.80;;;;;;5033825;28;20138;-55
2023/02/08 05:57:39;;;;;;;30.00;14.88;;;-4.30;76.90;;;;;;5032302;28;20111;-60
2023/02/08 06:00:06;;;;;;;32.78;15.00;;;-4.30;76.90;;;;;;5029761;28;20539;-59
2023/02/08 06:02:33;;;;;;;33.15;14.35;;;-4.30;76.90;;;;;;5033134;28;20040;-56
2023/02/08 06:04:58;;;;;;;27.67;14.27;;;-4.30;76.90;;;;;;5031566;28;20492;-58
2023/02/08 06:07:24;;;;;;;28.67;14.38;;;-4.30;76.90;;;;;;5032816;28;20056;-58
2023/02/08 06:09:49;;;;;;;28.25;13.82;;;-4.40;76.90;;;;;;5033957;28;20493;-58
2023/02/08 06:12:15;;;;;;;28.60;14.88;;;-4.30;77.00;;;;;;5033344;28;20082;-59
2023/02/08 06:14:40;;;;;;;27.58;13.77;;;-4.30;76.90;;;;;;5029265;28;20036;-58
2023/02/08 06:17:06;;;;;;;27.20;14.55;;;-4.30;76.90;;;;;;5033354;28;20029;-58
2023/02/08 06:19:32;;;;;;;28.48;14.75;;;-4.40;77.20;;;;;;5030446;28;20033;-59
2023/02/08 06:21:57;;;;;;;29.23;15.15;;;-4.40;76.90;;;;;;5031194;28;20040;-58
2023/02/08 06:24:24;;;;;;;29.38;15.20;;;-4.40;76.90;;;;;;5031864;28;20045;-58
2023/02/08 06:26:50;;;;;;;29.95;15.35;;;-4.40;76.90;;;;;;5030121;28;20392;-57
2023/02/08 06:29:15;;;;;;;29.83;14.50;;;-4.40;76.90;;;;;;5029880;28;20496;-59
2023/02/08 06:31:41;;;;;;;29.55;14.93;;;-4.40;76.90;;;;;;5032944;28;20042;-59
2023/02/08 06:34:07;;;;;;;27.17;14.35;;;-4.40;77.00;;;;;;5031834;28;20037;-60
2023/02/08 06:36:32;;;;;;;30.15;14.38;;;-4.40;77.10;;;;;;5030527;28;21285;-58
2023/02/08 06:38:58;;;;;;;28.98;15.35;;;-4.40;77.00;;;;;;5030333;28;20053;-57
2023/02/08 06:41:24;;;;;;;28.77;14.40;;;-4.40;77.10;;;;;;5032144;28;20033;-60
2023/02/08 06:43:49;;;;;;;31.45;15.13;;;-4.40;77.10;;;;;;5028682;28;20072;-57
2023/02/08 06:46:15;;;;;;;31.20;15.95;;;-4.40;77.20;;;;;;5031106;28;20103;-59
2023/02/08 06:48:40;;;;;;;31.55;14.88;;;-4.40;77.10;;;;;;5033402;28;20127;-59
2023/02/08 06:51:06;;;;;;;31.55;15.23;;;-4.40;77.10;;;;;;5036349;28;20041;-58
2023/02/08 06:53:32;;;;;;;29.77;14.52;;;-4.40;77.10;;;;;;5038425;28;20071;-57
2023/02/08 06:55:57;;;;;;;28.58;14.27;;;-4.40;77.10;;;;;;5036521;28;20033;-59
2023/02/08 06:58:23;;;;;;;28.88;14.70;;;-4.40;77.10;;;;;;5035515;28;20334;-58
2023/02/08 07:00:48;;;;;;;28.17;13.98;;;-4.40;77.20;;;;;;5032797;28;20124;-60
2023/02/08 07:03:16;;;;;;;31.40;15.57;;;-4.40;77.20;;;;;;5035540;28;20060;-58
2023/02/08 07:05:42;;;;;;;31.75;14.68;;;-4.40;77.20;;;;;;5031794;28;20067;-59
2023/02/08 07:08:07;;;;;;;32.35;14.63;;;-4.30;77.30;;;;;;5032377;28;20033;-60
2023/02/08 07:10:33;;;;;;;32.25;15.52;;;-4.30;77.30;;;;;;5034140;28;20061;-59
2023/02/08 07:13:01;;;;;;;30.23;15.20;;;-4.40;77.20;;;;;;5033884;28;20049;-60
2023/02/08 07:15:27;;;;;;;32.85;16.55;;;-4.30;77.30;;;;;;5034793;28;20041;-58
2023/02/08 07:17:52;;;;;;;32.15;15.73;;;-4.30;77.40;;;;;;5032733;28;20059;-60
2023/02/08 07:20:18;;;;;;;33.03;16.23;;;-4.30;77.30;;;;;;5033551;28;20065;-60
2023/02/08 07:22:43;;;;;;;31.48;15.63;;;-4.30;77.30;;;;;;5034097;28;20099;-57
2023/02/08 07:25:09;;;;;;;32.67;15.65;;;-4.30;77.20;;;;;;5033656;28;20416;-56
2023/02/08 07:27:35;;;;;;;33.50;16.17;;;-4.20;77.40;;;;;;5034286;28;20070;-60
2023/02/08 07:30:00;;;;;;;31.42;16.15;;;-4.20;77.40;;;;;;5035121;28;20065;-57
2023/02/08 07:32:26;;;;;;;30.85;15.68;;;-4.20;77.50;;;;;;5036172;28;20030;-57
2023/02/08 07:34:53;;;;;;;32.95;15.85;;;-4.20;77.50;;;;;;5032962;28;20140;-56
2023/02/08 07:37:19;;;;;;;35.47;16.80;;;-4.20;77.60;;;;;;5036538;28;20131;-57
2023/02/08 07:39:44;;;;;;;34.60;16.13;;;-4.20;77.50;;;;;;5033590;28;20041;-58
2023/02/08 07:42:10;;;;;;;33.55;16.60;;;-4.20;77.60;;;;;;5033856;28;20084;-57
2023/02/08 07:44:39;;;;;;;31.30;16.83;;;-4.20;77.60;;;;;;5031677;28;20439;-60
2023/02/08 07:47:05;;;;;;;32.10;16.08;;;-4.10;77.80;;;;;;5035245;28;20025;-58
2023/02/08 07:49:32;;;;;;;30.88;16.50;;;-4.10;77.80;;;;;;5034191;28;20124;-59
2023/02/08 07:51:59;;;;;;;30.92;16.10;;;-4.10;77.80;;;;;;5035809;28;20037;-57
2023/02/08 07:54:25;;;;;;;36.45;18.35;;;-4.10;77.90;;;;;;5035243;28;20128;-60
2023/02/08 07:56:50;;;;;;;34.55;16.60;;;-4.10;77.90;;;;;;5033715;28;20688;-58
2023/02/08 07:59:16;;;;;;;34.95;16.98;;;-4.10;78.00;;;;;;5033061;28;20420;-59
2023/02/08 08:01:41;;;;;;;34.03;15.98;;;-4.10;78.10;;;;;;5034059;28;20607;-58
2023/02/08 08:04:07;;;;;;;38.50;15.55;;;-4.10;78.10;;;;;;5034255;28;20037;-60
2023/02/08 08:06:33;;;;;;;36.50;16.77;;;-4.00;78.30;;;;;;5033112;28;20491;-58
2023/02/08 08:08:58;;;;;;;33.92;16.20;;;-4.00;78.30;;;;;;5037039;28;20225;-57
2023/02/08 08:11:24;;;;;;;32.95;16.88;;;-4.00;78.40;;;;;;5030564;28;20038;-58
2023/02/08 08:13:50;;;;;;;32.47;17.02;;;-4.00;78.50;;;;;;5033722;28;20063;-58
2023/02/08 08:16:16;;;;;;;32.78;17.00;;;-3.90;78.60;;;;;;5035447;28;20064;-58
2023/02/08 08:18:42;;;;;;;33.00;17.20;;;-3.90;78.60;;;;;;5031832;28;20044;-60
2023/02/08 08:21:08;;;;;;;32.88;16.92;;;-3.90;78.60;;;;;;5034666;28;20237;-58
2023/02/08 08:23:35;;;;;;;35.28;16.98;;;-3.80;79.50;;;;;;5033161;28;20041;-58
2023/02/08 08:26:09;;;;;;;40.20;17.88;;;-3.80;78.80;;;;;;5033015;28;20044;-58
2023/02/08 08:28:35;;;;;;;32.25;16.27;;;-3.70;78.80;;;;;;5032034;28;20091;-59
2023/02/08 08:31:00;;;;;;;33.03;16.83;;;-3.70;78.80;;;;;;5034786;28;20041;-58
2023/02/08 08:33:26;;;;;;;32.38;17.13;;;-3.60;78.80;;;;;;5032525;28;20515;-58
2023/02/08 08:35:51;;;;;;;36.67;16.90;;;-3.60;79.70;;;;;;5032739;28;20045;-58
2023/02/08 08:38:17;;;;;;;35.90;17.00;;;-3.50;78.80;;;;;;5034323;28;20029;-58
2023/02/08 08:40:43;;;;;;;38.95;17.48;;;-3.50;78.80;;;;;;5032562;28;20037;-58
2023/02/08 08:43:08;;;;;;;32.40;16.35;;;-3.40;78.80;;;;;;5031597;28;20720;-59
2023/02/08 08:45:35;;;;;;;34.55;16.52;;;-3.40;78.70;;;;;;5032634;28;20041;-60
2023/02/08 08:48:02;;;;;;;31.42;16.48;;;-3.30;78.60;;;;;;5033966;28;20036;-59
2023/02/08 08:50:28;;;;;;;35.55;17.73;;;-3.30;78.60;;;;;;5033902;28;20037;-59
2023/02/08 08:52:53;;;;;;;35.30;17.75;;;-3.20;78.70;;;;;;5031506;28;20041;-59
2023/02/08 08:55:19;;;;;;;32.95;16.83;;;-3.10;78.80;;;;;;5034029;28;20769;-59
2023/02/08 08:57:44;;;;;;;37.63;16.73;;;-3.10;78.80;;;;;;5030513;28;20431;-60
2023/02/08 09:00:11;;;;;;;34.97;16.92;;;-3.00;78.80;;;;;;5034061;28;20037;-59
2023/02/08 09:02:36;;;;;;;34.88;17.45;;;-3.00;78.70;;;;;;5025707;28;20045;-59
2023/02/08 09:05:04;;;;;;;36.55;17.65;;;-2.90;78.70;;;;;;5033989;28;20038;-58
2023/02/08 09:07:29;;;;;;;39.15;17.27;;;-2.80;78.60;;;;;;5032692;28;20425;-57
2023/02/08 09:09:55;;;;;;;34.47;17.83;;;-2.80;78.60;;;;;;5033742;28;20048;-58
2023/02/08 09:12:21;;;;;;;33.88;17.23;;;-2.70;78.60;;;;;;5028278;28;20116;-61
2023/02/08 09:14:46;;;;;;;34.00;16.85;;;-2.70;78.50;;;;;;5032607;28;20045;-59
2023/02/08 09:17:12;;;;;;;34.05;16.92;;;-2.60;78.50;;;;;;5033546;28;20048;-57
2023/02/08 09:19:38;;;;;;;39.92;17.48;;;-2.60;78.40;;;;;;5034682;28;20409;-58
2023/02/08 09:22:06;;;;;;;33.70;16.90;;;-2.50;78.50;;;;;;5032490;28;20044;-57
2023/02/08 09:24:32;;;;;;;36.85;18.33;;;-2.50;78.50;;;;;;5030894;28;20033;-58
2023/02/08 09:26:58;;;;;;;35.05;16.85;;;-2.40;78.50;;;;;;5031622;28;20026;-59
2023/02/08 09:29:23;;;;;;;33.03;16.90;;;-2.30;78.60;;;;;;5031330;28;20460;-58
2023/02/08 09:31:49;;;;;;;31.83;16.85;;;-2.30;78.50;;;;;;5031119;28;20029;-57
2023/02/08 09:34:14;;;;;;;35.05;17.00;;;-2.20;78.30;;;;;;5032553;28;20516;-58
2023/02/08 09:36:40;;;;;;;32.67;16.45;;;-2.20;78.20;;;;;;5032509;28;20029;-57
2023/02/08 09:39:13;;;;;;;35.13;17.55;;;-2.10;78.30;;;;;;5034958;28;20034;-54
2023/02/08 09:41:50;;;;;;;33.08;16.30;;;-2.10;78.40;;;;;;5031162;28;20034;-57
2023/02/08 09:44:27;;;;;;;35.35;16.65;;;-2.00;78.40;;;;;;5031903;28;20045;-57
2023/02/08 09:46:53;;;;;;;33.50;16.92;;;-1.90;78.30;;;;;;5032162;28;20040;-57
2023/02/08 09:49:25;;;;;;;36.67;17.55;;;-1.90;78.10;;;;;;5032616;28;20465;-58
2023/02/08 09:51:57;;;;;;;32.95;17.10;;;-1.80;78.20;;;;;;5032276;28;20689;-58
2023/02/08 09:54:32;;;;;;;32.42;16.88;;;-1.80;78.10;;;;;;5033292;28;20064;-55
2023/02/08 09:57:02;;;;;;;36.67;17.75;;;-1.70;78.30;;;;;;5031867;28;20434;-57
2023/02/08 09:59:32;;;;;;;33.40;17.48;;;-1.60;78.30;;;;;;5031123;28;20037;-58
2023/02/08 10:02:10;;;;;;;35.83;16.80;;;-1.60;78.30;;;;;;5030465;28;20033;-55
2023/02/08 10:04:47;;;;;;;34.42;17.05;;;-1.50;78.10;;;;;;5030840;28;20048;-57
2023/02/08 10:07:12;;;;;;;32.95;17.00;;;-1.40;77.90;;;;;;5034448;28;20040;-59
2023/02/08 10:09:38;;;;;;;34.17;16.73;;;-1.30;77.80;;;;;;5035822;28;20063;-58
2023/02/08 10:12:42;;;;;;;35.05;17.67;;;-1.20;77.80;;;;;;5028557;28;20041;-59
2023/02/08 10:15:13;;;;;;;33.17;16.52;;;-1.20;77.40;;;;;;5012033;28;20087;-54
2023/02/08 10:17:53;;;;;;;34.03;16.80;;;-1.10;77.80;;;;;;5027038;28;20398;-54
2023/02/08 10:20:40;;;;;;;33.50;17.20;;;-1.10;77.60;;;;;;5032670;28;20063;-54
2023/02/08 10:23:34;;;;;;;35.38;16.75;;;-1.00;77.80;;;;;;5033222;28;20029;-58
2023/02/08 10:26:20;;;;;;;37.30;16.45;;;-1.00;77.60;;;;;;5035368;28;20199;-57
2023/02/08 10:28:55;;;;;;;34.58;16.15;;;-0.90;77.40;;;;;;5036345;28;20041;-58
2023/02/08 10:31:43;;;;;;;;;;;-0.80;77.30;;;;;;5032718;28;20043;-58
2023/02/08 10:34:15;;;;;;;30.17;16.08;;;-0.70;78.10;;;;;;5020965;28;19917;-59
2023/02/08 10:36:41;;;;;;;35.33;16.40;;;-0.60;77.60;;;;;;5037880;28;20536;-59
2023/02/08 10:39:20;;;;;;;28.67;16.08;;;-0.60;77.50;;;;;;5035568;28;20069;-58
2023/02/08 10:41:46;;;;;;;38.00;17.15;;;-0.50;77.30;;;;;;5035501;28;20109;-58
2023/02/08 10:44:40;;;;;;;30.63;16.42;;;-0.40;77.40;;;;;;5036410;28;20111;-59
2023/02/08 10:47:31;;;;;;;32.05;16.60;;;-0.40;77.40;;;;;;5038064;28;20052;-57
2023/02/08 10:49:59;;;;;;;28.35;16.02;;;-0.30;77.10;;;;;;5034150;28;20226;-59
2023/02/08 10:52:25;;;;;;;33.33;16.23;;;-0.30;77.30;;;;;;5037654;28;20164;-59
2023/02/08 10:54:51;;;;;;;28.50;15.35;;;-0.20;77.30;;;;;;5035704;28;20127;-58
2023/02/08 10:57:22;;;;;;;33.30;16.33;;;-0.10;77.30;;;;;;5033157;28;20034;-59
2023/02/08 10:59:52;;;;;;;26.23;14.80;;;0.00;77.50;;;;;;5036429;28;20122;-58
2023/02/08 11:02:25;;;;;;;25.33;14.13;;;0.00;77.40;;;;;;5035093;28;20029;-58
2023/02/08 11:05:00;;;;;;;27.38;14.15;;;0.10;77.40;;;;;;5036647;28;20064;-60
2023/02/08 11:07:25;;;;;;;;;;;0.20;77.20;;;;;;5037187;28;20061;-56
2023/02/08 11:09:51;;;;;;;26.85;13.65;;;0.30;77.10;;;;;;5034097;28;19944;-56
2023/02/08 11:12:21;;;;;;;26.88;13.98;;;0.40;77.40;;;;;;5029755;28;20038;-57
2023/02/08 11:14:52;;;;;;;29.17;13.65;;;0.50;76.80;;;;;;5032684;28;20443;-58
2023/02/08 11:17:31;;;;;;;25.45;13.40;;;0.60;76.80;;;;;;5032384;28;20037;-58
2023/02/08 11:19:58;;;;;;;25.00;13.40;;;0.70;76.60;;;;;;5033828;28;20056;-56
2023/02/08 11:22:26;;;;;;;25.95;13.32;;;0.70;76.80;;;;;;5035868;28;20063;-55
2023/02/08 11:25:01;;;;;;;25.50;13.57;;;0.80;76.90;;;;;;5036119;28;20042;-57
2023/02/08 11:27:27;;;;;;;28.90;14.10;;;0.80;76.70;;;;;;5032609;28;20041;-58
2023/02/08 11:30:14;;;;;;;21.25;12.68;;;1.00;76.90;;;;;;5034271;28;20037;-58
2023/02/08 11:32:42;;;;;;;23.20;12.68;;;1.10;76.40;;;;;;5034221;28;20040;-58
2023/02/08 11:35:20;;;;;;;24.33;13.32;;;1.20;76.70;;;;;;5031253;28;20040;-60
2023/02/08 11:37:57;;;;;;;25.63;13.05;;;1.20;76.00;;;;;;5036323;28;20086;-59
2023/02/08 11:40:28;;;;;;;26.90;13.75;;;1.30;75.70;;;;;;5033548;28;20140;-55
2023/02/08 11:42:54;;;;;;;30.75;14.43;;;1.40;75.90;;;;;;5032208;28;20048;-54
2023/02/08 11:45:24;;;;;;;24.15;13.02;;;1.40;75.70;;;;;;5036277;28;20037;-59
2023/02/08 11:47:51;;;;;;;24.67;12.63;;;1.50;75.70;;;;;;5035059;28;20034;-56
2023/02/08 11:50:33;;;;;;;25.35;13.68;;;1.60;75.60;;;;;;5035702;28;20051;-60
2023/02/08 11:53:26;;;;;;;25.15;13.18;;;1.60;74.80;;;;;;5034451;28;20033;-59
2023/02/08 11:56:01;;;;;;;25.15;12.38;;;1.70;74.80;;;;;;5031899;28;20048;-56
2023/02/08 11:58:27;;;;;;;23.60;12.85;;;1.80;75.00;;;;;;5034338;28;20041;-58
2023/02/08 12:01:16;;;;;;;26.98;12.98;;;1.80;75.00;;;;;;5034553;28;20041;-55
2023/02/08 12:03:46;;;;;;;25.38;12.45;;;1.90;74.50;;;;;;5035762;28;20053;-58
2023/02/08 12:06:43;;;;;;;25.27;12.38;;;1.90;74.50;;;;;;5034168;28;20332;-56
2023/02/08 12:09:24;;;;;;;24.23;12.20;;;2.00;74.10;;;;;;5037842;28;20069;-54
2023/02/08 12:11:55;;;;;;;26.55;13.20;;;2.00;74.30;;;;;;5032806;28;20567;-58
2023/02/08 12:14:42;;;;;;;27.83;14.80;;;2.10;74.20;;;;;;5032473;28;20049;-55
2023/02/08 12:17:10;;;;;;;22.67;12.75;;;2.10;75.00;;;;;;5036024;28;20029;-56
2023/02/08 12:20:02;;;;;;;23.55;12.50;;;2.20;74.10;;;;;;5035130;28;20034;-59
2023/02/08 12:22:29;;;;;;;22.98;13.30;;;2.20;73.80;;;;;;5031658;28;20120;-59
2023/02/08 12:25:16;;;;;;;24.73;12.30;;;2.30;74.30;;;;;;5034488;28;20032;-58
2023/02/08 12:28:14;;;;;;;20.73;12.25;;;2.40;73.40;;;;;;5033653;28;20033;-60
2023/02/08 12:30:53;;;;;;;21.25;11.80;;;2.40;73.80;;;;;;5033591;28;20511;-59
2023/02/08 12:33:28;;;;;;;24.38;12.52;;;2.40;73.80;;;;;;5035999;28;20400;-58
2023/02/08 12:36:10;;;;;;;24.38;12.45;;;2.50;73.40;;;;;;5034390;28;20041;-58
2023/02/08 12:41:56;;;;;;;22.37;12.47;;;2.50;72.80;;;;;;5033301;28;20094;-59
2023/02/08 12:44:34;;;;;;;22.58;12.05;;;2.60;73.50;;;;;;5033079;28;20079;-59
2023/02/08 12:47:08;;;;;;;23.45;12.52;;;2.60;72.90;;;;;;5031492;28;20021;-54
2023/02/08 12:49:44;;;;;;;23.40;12.35;;;2.60;74.00;;;;;;5033968;28;20123;-58
2023/02/08 12:52:40;;;;;;;23.42;12.15;;;2.60;73.20;;;;;;5033270;28;20029;-59